createdAt,value
2023-03-29T00:00:09.799Z,90.50
2023-03-29T00:02:53.706Z,90.60
2023-03-29T00:05:22.962Z,90.90
2023-03-29T00:07:53.893Z,90.90
2023-03-29T00:10:23.942Z,90.60
2023-03-29T00:12:52.346Z,90.40
2023-03-29T00:15:20.345Z,90.30
2023-03-29T00:17:48.205Z,90.70
2023-03-29T00:20:17.700Z,90.40
2023-03-29T00:22:46.595Z,90.90
2023-03-29T00:25:14.853Z,91.30
2023-03-29T00:27:42.945Z,90.90
2023-03-29T00:30:11.853Z,91.30
2023-03-29T00:32:39.633Z,91.30
2023-03-29T00:35:07.826Z,90.80
2023-03-29T00:37:37.851Z,90.10
2023-03-29T00:40:09.523Z,90.70
2023-03-29T00:42:37.725Z,91.10
2023-03-29T00:45:08.137Z,91.20
2023-03-29T00:47:41.457Z,90.90
2023-03-29T00:50:14.195Z,91.00
2023-03-29T00:52:47.443Z,90.60
2023-03-29T00:55:19.643Z,90.70
2023-03-29T00:57:49.223Z,90.20
2023-03-29T01:00:20.833Z,89.80
2023-03-29T01:02:54.187Z,90.60
2023-03-29T01:05:26.933Z,90.80
2023-03-29T01:08:02.008Z,91.10
2023-03-29T01:10:35.566Z,91.00
2023-03-29T01:13:09.339Z,91.00
2023-03-29T01:15:39.588Z,90.50
2023-03-29T01:18:08.700Z,89.80
2023-03-29T01:20:50.782Z,89.40
2023-03-29T01:23:37.798Z,89.30
2023-03-29T01:26:15.763Z,89.30
2023-03-29T01:28:52.472Z,89.00
2023-03-29T01:31:25.118Z,89.20
2023-03-29T01:33:59.650Z,89.60
2023-03-29T01:36:34.875Z,89.70
2023-03-29T01:39:05.979Z,89.30
2023-03-29T01:41:47.697Z,89.40
2023-03-29T01:44:21.896Z,89.50
2023-03-29T01:46:54.202Z,90.20
2023-03-29T01:49:28.269Z,90.40
2023-03-29T01:52:00.658Z,90.70
2023-03-29T01:54:35.964Z,90.70
2023-03-29T01:57:05.891Z,90.80
2023-03-29T01:59:39.492Z,90.80
2023-03-29T02:02:11.510Z,90.90
2023-03-29T02:04:44.663Z,90.30
2023-03-29T02:07:15.336Z,89.70
2023-03-29T02:09:44.240Z,89.60
2023-03-29T02:12:12.994Z,89.70
2023-03-29T02:14:42.010Z,89.90
2023-03-29T02:17:18.134Z,90.40
2023-03-29T02:19:51.813Z,90.60
2023-03-29T02:22:25.172Z,91.10
2023-03-29T02:24:58.949Z,90.90
2023-03-29T02:27:27.940Z,90.50
2023-03-29T02:29:57.402Z,90.30
2023-03-29T02:32:31.058Z,90.60
2023-03-29T02:35:03.212Z,90.10
2023-03-29T02:37:34.375Z,90.30
2023-03-29T02:40:07.882Z,90.20
2023-03-29T02:42:37.741Z,89.50
2023-03-29T02:45:09.404Z,89.70
2023-03-29T02:47:42.309Z,89.90
2023-03-29T02:50:10.473Z,90.10
2023-03-29T02:52:42.557Z,90.40
2023-03-29T02:55:15.328Z,90.00
2023-03-29T02:57:43.764Z,90.20
2023-03-29T03:00:19.860Z,89.50
2023-03-29T03:02:48.949Z,89.20
2023-03-29T03:05:17.395Z,89.20
2023-03-29T03:07:46.118Z,89.00
2023-03-29T03:10:14.635Z,89.40
2023-03-29T03:12:42.392Z,89.20
2023-03-29T03:15:10.551Z,88.50
2023-03-29T03:17:42.055Z,88.40
2023-03-29T03:20:13.618Z,88.50
2023-03-29T03:22:45.110Z,88.20
2023-03-29T03:25:13.054Z,87.80
2023-03-29T03:27:41.237Z,87.70
2023-03-29T03:30:10.119Z,88.10
2023-03-29T03:32:59.157Z,88.40
2023-03-29T03:35:47.883Z,87.90
2023-03-29T03:38:17.504Z,89.30
2023-03-29T03:40:54.936Z,89.30
2023-03-29T03:43:23.149Z,89.50
2023-03-29T03:45:51.897Z,89.40
2023-03-29T03:48:25.696Z,89.60
2023-03-29T03:50:59.783Z,89.10
2023-03-29T03:53:33.732Z,89.10
2023-03-29T03:56:21.475Z,88.90
2023-03-29T03:59:09.185Z,88.60
2023-03-29T04:01:46.814Z,89.00
2023-03-29T04:04:20.696Z,89.10
2023-03-29T04:07:08.648Z,88.30
2023-03-29T04:09:41.756Z,87.80
2023-03-29T04:12:21.448Z,88.00
2023-03-29T04:14:49.760Z,87.60
2023-03-29T04:17:22.261Z,86.80
2023-03-29T04:19:57.408Z,86.10
2023-03-29T04:22:26.955Z,86.20
2023-03-29T04:24:55.247Z,86.30
2023-03-29T04:27:42.944Z,85.90
2023-03-29T04:30:30.716Z,85.10
2023-03-29T04:33:18.565Z,85.10
2023-03-29T04:35:52.897Z,85.40
2023-03-29T04:38:23.306Z,84.90
2023-03-29T04:40:54.775Z,85.20
2023-03-29T04:43:34.321Z,85.80
2023-03-29T04:46:11.351Z,86.30
2023-03-29T04:49:00.117Z,86.60
2023-03-29T04:51:37.123Z,86.70
2023-03-29T04:54:05.781Z,86.20
2023-03-29T04:56:46.320Z,86.30
2023-03-29T04:59:34.938Z,85.90
2023-03-29T05:02:16.214Z,86.10
2023-03-29T05:04:47.874Z,86.70
2023-03-29T05:07:19.466Z,87.10
2023-03-29T05:09:48.492Z,87.10
2023-03-29T05:12:16.457Z,87.40
2023-03-29T05:15:01.519Z,86.80
2023-03-29T05:17:30.404Z,87.10
2023-03-29T05:20:09.163Z,87.00
2023-03-29T05:22:39.189Z,86.50
2023-03-29T05:25:13.222Z,87.10
2023-03-29T05:27:43.997Z,87.30
2023-03-29T05:30:13.570Z,87.40
2023-03-29T05:32:49.891Z,86.70
2023-03-29T05:35:25.400Z,87.20
2023-03-29T05:37:56.263Z,87.80
2023-03-29T05:40:26.107Z,87.70
2023-03-29T05:43:14.161Z,87.70
2023-03-29T05:45:42.008Z,86.80
2023-03-29T05:48:10.519Z,87.20
2023-03-29T05:50:43.295Z,87.40
2023-03-29T05:53:14.122Z,87.70
2023-03-29T05:55:42.395Z,87.50
2023-03-29T05:58:13.114Z,87.90
2023-03-29T06:00:42.792Z,87.30
2023-03-29T06:03:27.263Z,87.00
2023-03-29T06:05:59.751Z,87.20
2023-03-29T06:08:29.635Z,87.20
2023-03-29T06:11:17.510Z,86.60
2023-03-29T06:14:06.186Z,85.90
2023-03-29T06:16:36.275Z,86.00
2023-03-29T06:19:04.060Z,86.00
2023-03-29T06:21:32.929Z,86.90
2023-03-29T06:24:03.899Z,87.30
2023-03-29T06:26:38.288Z,86.90
2023-03-29T06:29:06.265Z,86.80
2023-03-29T06:31:35.998Z,87.40
2023-03-29T06:34:05.878Z,87.90
2023-03-29T06:36:54.790Z,87.00
2023-03-29T06:39:25.793Z,86.60
2023-03-29T06:42:20.545Z,85.50
2023-03-29T06:45:10.350Z,85.50
2023-03-29T06:47:39.866Z,85.50
2023-03-29T06:50:08.534Z,84.70
2023-03-29T06:52:44.685Z,84.90
2023-03-29T06:55:15.805Z,85.00
2023-03-29T06:57:43.659Z,84.70
2023-03-29T07:00:18.121Z,84.90
2023-03-29T07:03:07.949Z,84.00
2023-03-29T07:05:40.586Z,84.20
2023-03-29T07:08:15.116Z,84.10
2023-03-29T07:10:53.523Z,83.40
2023-03-29T07:13:42.293Z,83.90
2023-03-29T07:16:12.462Z,84.30
2023-03-29T07:18:48.680Z,83.90
2023-03-29T07:21:30.786Z,83.50
2023-03-29T07:23:58.918Z,83.40
2023-03-29T07:26:30.502Z,83.10
2023-03-29T07:29:00.875Z,82.70
2023-03-29T07:31:29.747Z,82.00
2023-03-29T07:34:17.652Z,82.40
2023-03-29T07:36:45.514Z,82.60
2023-03-29T07:39:15.264Z,81.40
2023-03-29T07:41:59.399Z,81.70
2023-03-29T07:44:30.200Z,82.00
2023-03-29T07:46:59.911Z,81.20
2023-03-29T07:49:28.962Z,80.60
2023-03-29T07:51:56.990Z,80.10
2023-03-29T07:54:25.741Z,80.20
2023-03-29T07:57:03.781Z,78.80
2023-03-29T07:59:36.850Z,79.20
2023-03-29T08:02:11.578Z,79.80
2023-03-29T08:04:42.759Z,79.70
2023-03-29T08:07:30.855Z,78.60
2023-03-29T08:10:21.175Z,77.40
2023-03-29T08:13:13.330Z,77.40
2023-03-29T08:15:50.233Z,78.10
2023-03-29T08:18:26.052Z,77.40
2023-03-29T08:20:53.990Z,75.30
2023-03-29T08:23:22.644Z,75.50
2023-03-29T08:26:10.336Z,73.50
2023-03-29T08:28:41.069Z,72.70
2023-03-29T08:31:10.758Z,73.60
2023-03-29T08:33:44.130Z,69.10
2023-03-29T08:36:28.559Z,68.90
2023-03-29T08:38:59.550Z,65.90
2023-03-29T08:41:39.436Z,65.90
2023-03-29T08:44:21.456Z,64.90
2023-03-29T08:47:05.022Z,63.20
2023-03-29T08:49:44.642Z,62.70
2023-03-29T08:52:22.048Z,63.60
2023-03-29T08:54:55.141Z,63.20
2023-03-29T08:57:46.225Z,62.30
2023-03-29T09:00:24.353Z,63.50
2023-03-29T09:02:57.331Z,64.90
2023-03-29T09:05:30.963Z,62.90
2023-03-29T09:08:13.292Z,60.00
2023-03-29T09:10:47.475Z,57.50
2023-03-29T09:13:31.734Z,59.10
2023-03-29T09:16:06.083Z,59.40
2023-03-29T09:18:51.590Z,58.40
2023-03-29T09:21:27.118Z,58.00
2023-03-29T09:24:16.455Z,59.70
2023-03-29T09:27:08.474Z,58.40
2023-03-29T09:29:48.742Z,57.10
2023-03-29T09:32:23.209Z,59.20
2023-03-29T09:35:07.840Z,57.50
2023-03-29T09:37:39.443Z,55.30
2023-03-29T09:40:13.376Z,54.60
2023-03-29T09:42:54.806Z,54.10
2023-03-29T09:45:22.879Z,53.50
2023-03-29T09:47:58.785Z,53.10
2023-03-29T09:50:34.012Z,53.80
2023-03-29T09:53:05.545Z,54.00
2023-03-29T09:55:40.145Z,51.80
2023-03-29T09:58:19.370Z,53.20
2023-03-29T10:00:51.606Z,53.40
2023-03-29T10:03:23.774Z,54.40
2023-03-29T10:06:01.453Z,54.40
2023-03-29T10:08:31.683Z,55.50
2023-03-29T10:11:04.337Z,53.90
2023-03-29T10:13:35.630Z,53.00
2023-03-29T10:16:05.963Z,53.60
2023-03-29T10:18:41.828Z,53.30
2023-03-29T10:21:14.424Z,53.50
2023-03-29T10:23:42.566Z,52.60
2023-03-29T10:26:22.788Z,53.50
2023-03-29T10:28:52.750Z,53.20
2023-03-29T10:31:23.317Z,53.90
2023-03-29T10:33:55.523Z,54.10
2023-03-29T10:36:24.770Z,52.30
2023-03-29T10:38:54.163Z,50.60
2023-03-29T10:41:23.904Z,50.50
2023-03-29T10:43:52.489Z,49.90
2023-03-29T10:46:23.119Z,52.00
2023-03-29T10:48:58.395Z,50.80
2023-03-29T10:51:30.001Z,50.90
2023-03-29T10:54:00.700Z,51.90
2023-03-29T10:56:39.925Z,53.40
2023-03-29T10:59:21.870Z,52.70
2023-03-29T11:02:00.479Z,54.10
2023-03-29T11:04:38.125Z,53.10
2023-03-29T11:07:27.976Z,54.20
2023-03-29T11:10:08.215Z,54.20
2023-03-29T11:12:45.177Z,53.60
2023-03-29T11:15:29.343Z,55.60
2023-03-29T11:18:08.168Z,54.60
2023-03-29T11:20:43.133Z,53.80
2023-03-29T11:23:27.923Z,55.90
2023-03-29T11:26:09.622Z,55.30
2023-03-29T11:28:46.640Z,54.60
2023-03-29T11:31:21.764Z,56.50
2023-03-29T11:33:59.481Z,55.00
2023-03-29T11:36:39.545Z,53.90
2023-03-29T11:39:17.369Z,54.10
2023-03-29T11:41:49.843Z,54.00
2023-03-29T11:44:22.489Z,54.10
2023-03-29T11:46:56.758Z,55.60
2023-03-29T11:49:30.564Z,52.80
2023-03-29T11:52:08.923Z,52.10
2023-03-29T11:54:44.691Z,51.70
2023-03-29T11:57:19.908Z,52.90
2023-03-29T11:59:55.355Z,54.50
2023-03-29T12:02:30.528Z,55.30
2023-03-29T12:05:12.047Z,54.40
2023-03-29T12:07:49.552Z,55.60
2023-03-29T12:10:20.804Z,54.00
2023-03-29T12:12:56.158Z,55.20
2023-03-29T12:15:26.207Z,55.40
2023-03-29T12:18:02.907Z,56.20
2023-03-29T12:20:34.984Z,56.20
2023-03-29T12:23:07.164Z,54.80
2023-03-29T12:25:45.482Z,57.20
2023-03-29T12:28:27.819Z,54.90
2023-03-29T12:31:11.398Z,55.60
2023-03-29T12:34:08.225Z,55.20
2023-03-29T12:37:10.778Z,56.90
2023-03-29T12:40:11.704Z,56.20
2023-03-29T12:43:04.594Z,56.10
2023-03-29T12:45:56.055Z,57.40
2023-03-29T12:48:27.573Z,59.40
2023-03-29T12:51:00.880Z,62.00
2023-03-29T12:53:33.326Z,62.10
2023-03-29T12:56:13.731Z,62.40
2023-03-29T12:58:51.336Z,61.30
2023-03-29T13:01:29.628Z,60.10
2023-03-29T13:04:13.861Z,60.80
2023-03-29T13:07:03.115Z,60.30
2023-03-29T13:09:35.445Z,60.00
2023-03-29T13:12:20.893Z,61.90
2023-03-29T13:14:53.306Z,57.30
2023-03-29T13:17:27.159Z,58.70
2023-03-29T13:20:11.863Z,57.40
2023-03-29T13:22:52.068Z,58.60
2023-03-29T13:25:40.664Z,56.80
2023-03-29T13:28:17.042Z,57.30
2023-03-29T13:30:54.069Z,55.60
2023-03-29T13:33:39.527Z,56.00
2023-03-29T13:36:15.428Z,57.80
2023-03-29T13:38:48.657Z,56.70
2023-03-29T13:41:32.097Z,58.00
2023-03-29T13:44:01.629Z,55.20
2023-03-29T13:46:38.610Z,57.10
2023-03-29T13:49:14.138Z,55.60
2023-03-29T13:51:45.209Z,54.40
2023-03-29T13:54:24.180Z,57.10
2023-03-29T13:57:00.450Z,53.90
2023-03-29T13:59:37.555Z,54.70
2023-03-29T14:02:19.355Z,56.70
2023-03-29T14:04:53.559Z,55.50
2023-03-29T14:07:37.915Z,55.90
2023-03-29T14:10:08.370Z,52.90
2023-03-29T14:12:41.703Z,52.90
2023-03-29T14:15:25.476Z,52.10
2023-03-29T14:17:58.944Z,52.40
2023-03-29T14:20:36.123Z,52.10
2023-03-29T14:23:13.272Z,51.70
2023-03-29T14:25:42.529Z,50.40
2023-03-29T14:28:19.866Z,51.10
2023-03-29T14:30:51.029Z,50.90
2023-03-29T14:33:28.706Z,50.60
2023-03-29T14:35:59.953Z,50.60
2023-03-29T14:38:28.237Z,52.30
2023-03-29T14:41:00.607Z,53.50
2023-03-29T14:43:32.036Z,53.10
2023-03-29T14:46:05.082Z,53.40
2023-03-29T14:48:35.103Z,52.60
2023-03-29T14:51:03.253Z,52.00
2023-03-29T14:53:32.297Z,52.60
2023-03-29T14:56:01.941Z,53.80
2023-03-29T14:58:32.997Z,53.40
2023-03-29T15:01:08.007Z,54.90
2023-03-29T15:03:43.680Z,53.80
2023-03-29T15:06:14.355Z,53.40
2023-03-29T15:08:51.160Z,53.40
2023-03-29T15:11:28.091Z,53.80
2023-03-29T15:14:04.220Z,53.30
2023-03-29T15:16:34.277Z,53.30
2023-03-29T15:19:04.402Z,53.10
2023-03-29T15:21:35.343Z,53.10
2023-03-29T15:24:04.480Z,53.60
2023-03-29T15:26:36.474Z,53.40
2023-03-29T15:29:08.464Z,54.30
2023-03-29T15:31:44.659Z,54.50
2023-03-29T15:34:13.867Z,54.10
2023-03-29T15:36:45.281Z,52.20
2023-03-29T15:39:14.069Z,51.80
2023-03-29T15:41:42.021Z,53.30
2023-03-29T15:44:10.969Z,53.00
2023-03-29T15:46:40.451Z,52.50
2023-03-29T15:49:12.377Z,52.50
2023-03-29T15:51:42.317Z,52.10
2023-03-29T15:54:11.432Z,51.70
2023-03-29T15:56:48.808Z,52.40
2023-03-29T15:59:17.941Z,53.30
2023-03-29T16:01:48.691Z,53.60
2023-03-29T16:04:19.824Z,53.50
2023-03-29T16:06:49.451Z,52.10
2023-03-29T16:09:17.841Z,52.50
2023-03-29T16:11:47.404Z,52.20
2023-03-29T16:14:21.138Z,52.60
2023-03-29T16:16:50.559Z,52.50
2023-03-29T16:19:18.375Z,52.50
2023-03-29T16:21:46.448Z,53.90
2023-03-29T16:24:16.600Z,53.70
2023-03-29T16:26:44.509Z,53.60
2023-03-29T16:29:12.433Z,54.50
2023-03-29T16:31:40.459Z,54.60
2023-03-29T16:34:12.949Z,54.20
2023-03-29T16:36:41.004Z,58.70
2023-03-29T16:39:10.546Z,60.60
2023-03-29T16:41:38.646Z,62.00
2023-03-29T16:44:07.016Z,62.70
2023-03-29T16:46:35.693Z,63.00
2023-03-29T16:49:04.258Z,63.90
2023-03-29T16:51:33.363Z,64.20
2023-03-29T16:54:01.432Z,62.70
2023-03-29T16:56:29.605Z,62.60
2023-03-29T16:58:57.600Z,63.10
2023-03-29T17:01:25.480Z,62.60
2023-03-29T17:03:53.605Z,64.40
2023-03-29T17:06:21.812Z,65.00
2023-03-29T17:08:51.403Z,61.50
2023-03-29T17:11:22.991Z,61.70
2023-03-29T17:13:51.383Z,58.60
2023-03-29T17:16:20.097Z,58.50
2023-03-29T17:18:48.006Z,60.30
2023-03-29T17:21:15.808Z,58.00
2023-03-29T17:23:44.962Z,57.50
2023-03-29T17:26:14.123Z,57.90
2023-03-29T17:28:43.402Z,57.90
2023-03-29T17:31:14.073Z,57.80
2023-03-29T17:33:44.645Z,58.40
2023-03-29T17:36:12.571Z,56.60
2023-03-29T17:38:40.358Z,56.90
2023-03-29T17:41:10.944Z,56.70
2023-03-29T17:43:44.880Z,57.50
2023-03-29T17:46:12.718Z,56.50
2023-03-29T17:48:43.954Z,56.60
2023-03-29T17:51:11.695Z,56.30
2023-03-29T17:53:40.709Z,56.30
2023-03-29T17:56:09.242Z,55.60
2023-03-29T17:58:37.051Z,56.20
2023-03-29T18:01:10.003Z,56.90
2023-03-29T18:03:37.986Z,56.90
2023-03-29T18:06:06.994Z,61.90
2023-03-29T18:08:34.790Z,61.80
2023-03-29T18:11:07.611Z,62.80
2023-03-29T18:13:35.479Z,65.10
2023-03-29T18:16:04.238Z,64.50
2023-03-29T18:18:34.121Z,65.40
2023-03-29T18:21:02.510Z,66.10
2023-03-29T18:23:30.274Z,68.00
2023-03-29T18:26:02.828Z,69.30
2023-03-29T18:28:31.113Z,69.90
2023-03-29T18:30:59.014Z,71.50
2023-03-29T18:33:27.123Z,71.50
2023-03-29T18:35:56.202Z,70.60
2023-03-29T18:38:24.080Z,72.30
2023-03-29T18:40:55.320Z,73.20
2023-03-29T18:43:26.641Z,73.40
2023-03-29T18:45:54.337Z,73.90
2023-03-29T18:48:22.134Z,74.70
2023-03-29T18:50:51.188Z,73.70
2023-03-29T18:53:21.095Z,74.20
2023-03-29T18:55:48.859Z,72.60
2023-03-29T18:58:17.660Z,74.50
2023-03-29T19:00:46.001Z,75.50
2023-03-29T19:03:15.248Z,75.60
2023-03-29T19:05:43.416Z,75.90
2023-03-29T19:08:11.190Z,74.90
2023-03-29T19:10:40.851Z,76.00
2023-03-29T19:13:12.418Z,76.20
2023-03-29T19:15:40.577Z,76.90
2023-03-29T19:18:12.131Z,77.20
2023-03-29T19:20:41.165Z,76.70
2023-03-29T19:23:09.006Z,76.90
2023-03-29T19:25:38.390Z,77.80
2023-03-29T19:28:08.565Z,78.10
2023-03-29T19:30:36.807Z,78.30
2023-03-29T19:33:04.846Z,78.60
2023-03-29T19:35:32.629Z,78.00
2023-03-29T19:38:00.674Z,76.10
2023-03-29T19:40:28.406Z,77.30
2023-03-29T19:42:56.137Z,78.10
2023-03-29T19:45:26.452Z,78.70
2023-03-29T19:47:55.377Z,79.20
2023-03-29T19:50:24.065Z,78.90
2023-03-29T19:52:54.208Z,77.50
2023-03-29T19:55:22.404Z,76.20
2023-03-29T19:57:50.163Z,76.40
2023-03-29T20:00:18.716Z,74.90
2023-03-29T20:02:49.593Z,74.20
2023-03-29T20:05:17.713Z,74.80
2023-03-29T20:07:45.691Z,76.70
2023-03-29T20:10:13.515Z,77.00
2023-03-29T20:12:41.300Z,75.50
2023-03-29T20:15:09.946Z,75.20
2023-03-29T20:17:40.555Z,75.60
2023-03-29T20:20:11.971Z,75.40
2023-03-29T20:22:42.037Z,76.40
2023-03-29T20:25:10.365Z,76.70
2023-03-29T20:27:38.249Z,75.00
2023-03-29T20:30:06.977Z,75.70
2023-03-29T20:32:37.419Z,77.80
2023-03-29T20:35:05.842Z,76.10
2023-03-29T20:37:35.916Z,71.50
2023-03-29T20:40:05.669Z,72.50
2023-03-29T20:42:34.658Z,73.80
2023-03-29T20:45:03.254Z,73.80
2023-03-29T20:47:31.008Z,68.90
2023-03-29T20:50:01.525Z,66.70
2023-03-29T20:52:30.564Z,66.90
2023-03-29T20:55:00.392Z,66.20
2023-03-29T20:57:30.324Z,67.10
2023-03-29T20:59:59.095Z,65.80
2023-03-29T21:02:27.365Z,65.00
2023-03-29T21:05:00.156Z,65.80
2023-03-29T21:07:30.326Z,66.60
2023-03-29T21:10:00.994Z,68.60
2023-03-29T21:12:29.059Z,67.50
2023-03-29T21:14:56.780Z,68.80
2023-03-29T21:17:24.666Z,67.40
2023-03-29T21:19:53.109Z,65.40
2023-03-29T21:22:20.826Z,67.40
2023-03-29T21:24:48.558Z,66.10
2023-03-29T21:27:17.630Z,65.40
2023-03-29T21:29:45.560Z,65.80
2023-03-29T21:32:13.273Z,67.10
2023-03-29T21:34:41.119Z,67.60
2023-03-29T21:37:09.017Z,69.00
2023-03-29T21:39:36.739Z,68.10
2023-03-29T21:42:04.810Z,67.40
2023-03-29T21:44:34.527Z,69.20
2023-03-29T21:47:02.423Z,68.00
2023-03-29T21:49:31.563Z,65.50
2023-03-29T21:51:59.375Z,63.80
2023-03-29T21:54:27.194Z,61.60
2023-03-29T21:56:55.037Z,61.60
2023-03-29T21:59:22.887Z,61.00
2023-03-29T22:01:51.984Z,60.50
2023-03-29T22:04:33.219Z,59.80
2023-03-29T22:07:03.554Z,59.20
2023-03-29T22:09:33.145Z,60.20
2023-03-29T22:12:01.434Z,61.90
2023-03-29T22:14:30.085Z,60.60
2023-03-29T22:16:59.189Z,60.30
2023-03-29T22:19:27.004Z,60.60
2023-03-29T22:22:01.362Z,59.90
2023-03-29T22:24:29.918Z,59.60
2023-03-29T22:26:57.718Z,59.60
2023-03-29T22:29:25.486Z,58.80
2023-03-29T22:31:53.272Z,58.80
2023-03-29T22:34:22.356Z,58.90
2023-03-29T22:37:02.155Z,58.90
2023-03-29T22:39:29.943Z,58.40
2023-03-29T22:41:57.674Z,58.70
2023-03-29T22:44:25.479Z,58.30
2023-03-29T22:46:53.856Z,58.60
2023-03-29T22:49:22.927Z,58.50
2023-03-29T22:51:50.604Z,58.80
2023-03-29T22:54:18.649Z,59.00
2023-03-29T22:56:46.670Z,58.90
2023-03-29T22:59:15.661Z,58.50
2023-03-29T23:01:43.429Z,58.40
2023-03-29T23:04:11.419Z,58.00
2023-03-29T23:06:40.789Z,58.50
2023-03-29T23:09:10.057Z,57.80
2023-03-29T23:11:38.066Z,58.70
2023-03-29T23:14:05.755Z,61.40
2023-03-29T23:16:33.665Z,62.00
2023-03-29T23:19:01.779Z,62.10
2023-03-29T23:21:29.513Z,61.90
2023-03-29T23:23:58.635Z,62.40
2023-03-29T23:26:28.009Z,62.10
2023-03-29T23:28:57.369Z,62.00
2023-03-29T23:31:25.189Z,62.10
2023-03-29T23:33:53.158Z,61.00
2023-03-29T23:36:22.826Z,61.30
2023-03-29T23:38:51.272Z,60.30
2023-03-29T23:41:20.312Z,60.30
2023-03-29T23:43:50.068Z,60.90
2023-03-29T23:46:18.726Z,60.80
2023-03-29T23:48:48.863Z,66.70
2023-03-29T23:51:18.032Z,66.60
2023-03-29T23:53:46.446Z,64.30
2023-03-29T23:56:14.170Z,64.40
2023-03-29T23:58:44.251Z,64.70
